createdAt,value
2024-04-19T00:00:12.640Z,976.94
2024-04-19T00:01:12.717Z,976.93
2024-04-19T00:02:12.593Z,976.92
2024-04-19T00:03:12.630Z,976.89
2024-04-19T00:04:12.766Z,976.91
2024-04-19T00:05:12.536Z,976.86
2024-04-19T00:06:12.554Z,976.87
2024-04-19T00:07:12.503Z,976.88
2024-04-19T00:08:12.485Z,976.87
2024-04-19T00:09:12.490Z,976.84
2024-04-19T00:10:12.457Z,976.84
2024-04-19T00:11:12.502Z,976.81
2024-04-19T00:12:12.453Z,976.81
2024-04-19T00:13:12.403Z,976.79
2024-04-19T00:14:12.396Z,976.81
2024-04-19T00:15:12.400Z,976.80
2024-04-19T00:16:12.350Z,976.82
2024-04-19T00:17:12.335Z,976.79
2024-04-19T00:18:12.373Z,976.76
2024-04-19T00:19:12.346Z,976.80
2024-04-19T00:20:12.289Z,976.80
2024-04-19T00:21:12.324Z,976.81
2024-04-19T00:22:12.260Z,976.81
2024-04-19T00:23:12.242Z,976.78
2024-04-19T00:24:12.485Z,976.79
2024-04-19T00:25:12.205Z,976.78
2024-04-19T00:26:12.187Z,976.79
2024-04-19T00:27:12.197Z,976.80
2024-04-19T00:28:12.173Z,976.82
2024-04-19T00:29:12.138Z,976.82
2024-04-19T00:30:12.177Z,976.76
2024-04-19T00:31:12.108Z,976.81
2024-04-19T00:32:12.123Z,976.85
2024-04-19T00:33:14.431Z,976.86
2024-04-19T00:34:12.142Z,976.86
2024-04-19T00:35:12.050Z,976.84
2024-04-19T00:36:12.085Z,976.89
2024-04-19T00:37:12.011Z,976.80
2024-04-19T00:38:11.994Z,976.83
2024-04-19T00:39:12.135Z,976.83
2024-04-19T00:40:11.957Z,976.80
2024-04-19T00:41:11.946Z,976.79
2024-04-19T00:42:11.964Z,976.82
2024-04-19T00:43:11.911Z,976.79
2024-04-19T00:44:11.897Z,976.77
2024-04-19T00:45:11.892Z,976.79
2024-04-19T00:46:11.862Z,976.77
2024-04-19T00:47:11.845Z,976.75
2024-04-19T00:48:11.907Z,976.76
2024-04-19T00:49:11.809Z,976.74
2024-04-19T00:50:11.793Z,976.76
2024-04-19T00:51:12.025Z,976.73
2024-04-19T00:52:11.759Z,976.75
2024-04-19T00:53:11.751Z,976.72
2024-04-19T00:54:11.748Z,976.72
2024-04-19T00:55:11.713Z,976.76
2024-04-19T00:56:11.692Z,976.72
2024-04-19T00:57:11.684Z,976.69
2024-04-19T00:58:11.663Z,976.73
2024-04-19T00:59:11.644Z,976.71
2024-04-19T01:00:11.678Z,976.64
2024-04-19T01:01:11.660Z,976.67
2024-04-19T01:02:11.744Z,976.65
2024-04-19T01:03:11.618Z,976.63
2024-04-19T01:04:11.666Z,976.62
2024-04-19T01:05:11.547Z,976.61
2024-04-19T01:06:11.561Z,976.59
2024-04-19T01:07:11.522Z,976.54
2024-04-19T01:08:11.497Z,976.56
2024-04-19T01:09:11.560Z,976.54
2024-04-19T01:10:11.461Z,976.54
2024-04-19T01:11:11.463Z,976.55
2024-04-19T01:12:11.457Z,976.52
2024-04-19T01:13:11.408Z,976.53
2024-04-19T01:14:11.396Z,976.50
2024-04-19T01:15:11.428Z,976.53
2024-04-19T01:16:11.361Z,976.54
2024-04-19T01:17:11.365Z,976.49
2024-04-19T01:18:11.437Z,976.51
2024-04-19T01:19:11.382Z,976.50
2024-04-19T01:20:11.300Z,976.46
2024-04-19T01:21:11.281Z,976.50
2024-04-19T01:22:11.260Z,976.44
2024-04-19T01:23:11.258Z,976.47
2024-04-19T01:24:11.248Z,976.46
2024-04-19T01:25:11.222Z,976.47
2024-04-19T01:27:11.211Z,976.43
2024-04-19T01:28:11.169Z,976.43
2024-04-19T01:29:11.147Z,976.40
2024-04-19T01:30:11.154Z,976.41
2024-04-19T01:31:11.114Z,976.39
2024-04-19T01:32:11.100Z,976.39
2024-04-19T01:33:11.180Z,976.39
2024-04-19T01:34:11.092Z,976.40
2024-04-19T01:35:11.048Z,976.39
2024-04-19T01:36:11.054Z,976.38
2024-04-19T01:37:11.014Z,976.38
2024-04-19T01:38:10.999Z,976.37
2024-04-19T01:39:11.015Z,976.32
2024-04-19T01:40:10.974Z,976.33
2024-04-19T01:41:10.952Z,976.30
2024-04-19T01:42:10.999Z,976.36
2024-04-19T01:43:10.922Z,976.31
2024-04-19T01:44:10.903Z,976.32
2024-04-19T01:45:10.956Z,976.30
2024-04-19T01:46:10.871Z,976.32
2024-04-19T01:47:10.877Z,976.30
2024-04-19T01:48:10.896Z,976.29
2024-04-19T01:49:10.826Z,976.30
2024-04-19T01:50:10.802Z,976.29
2024-04-19T01:51:10.810Z,976.26
2024-04-19T01:52:10.768Z,976.23
2024-04-19T01:53:10.749Z,976.24
2024-04-19T01:54:10.803Z,976.29
2024-04-19T01:55:16.736Z,976.27
2024-04-19T01:56:10.722Z,976.24
2024-04-19T01:57:10.735Z,976.23
2024-04-19T01:58:10.688Z,976.16
2024-04-19T01:59:10.661Z,976.16
2024-04-19T02:00:10.697Z,976.17
2024-04-19T02:01:10.707Z,976.16
2024-04-19T02:02:10.634Z,976.16
2024-04-19T02:03:10.584Z,976.15
2024-04-19T02:04:10.643Z,976.17
2024-04-19T02:05:10.556Z,976.18
2024-04-19T02:06:10.574Z,976.15
2024-04-19T02:07:10.515Z,976.17
2024-04-19T02:08:10.506Z,976.20
2024-04-19T02:09:10.583Z,976.20
2024-04-19T02:10:10.464Z,976.19
2024-04-19T02:11:10.592Z,976.20
2024-04-19T02:12:10.463Z,976.21
2024-04-19T02:13:10.422Z,976.20
2024-04-19T02:14:10.399Z,976.20
2024-04-19T02:15:10.394Z,976.20
2024-04-19T02:16:10.367Z,976.20
2024-04-19T02:17:10.364Z,976.18
2024-04-19T02:18:10.364Z,976.18
2024-04-19T02:19:10.341Z,976.16
2024-04-19T02:20:10.306Z,976.18
2024-04-19T02:21:10.286Z,976.18
2024-04-19T02:22:10.267Z,976.14
2024-04-19T02:23:10.248Z,976.13
2024-04-19T02:24:10.251Z,976.12
2024-04-19T02:25:10.216Z,976.12
2024-04-19T02:26:10.206Z,976.06
2024-04-19T02:27:10.181Z,976.10
2024-04-19T02:28:10.198Z,976.08
2024-04-19T02:29:10.160Z,976.08
2024-04-19T02:30:10.138Z,976.09
2024-04-19T02:31:10.114Z,976.05
2024-04-19T02:32:10.098Z,975.98
2024-04-19T02:33:10.145Z,976.02
2024-04-19T02:34:10.136Z,976.00
2024-04-19T02:35:10.047Z,975.97
2024-04-19T02:36:10.032Z,975.89
2024-04-19T02:37:10.013Z,975.93
2024-04-19T02:38:10.001Z,975.90
2024-04-19T02:39:09.982Z,975.89
2024-04-19T02:40:09.976Z,975.88
2024-04-19T02:41:09.950Z,975.89
2024-04-19T02:42:09.937Z,975.85
2024-04-19T02:43:09.915Z,975.86
2024-04-19T02:44:09.906Z,975.84
2024-04-19T02:45:09.878Z,975.80
2024-04-19T02:46:09.933Z,975.82
2024-04-19T02:47:09.910Z,975.81
2024-04-19T02:48:09.836Z,975.78
2024-04-19T02:49:09.819Z,975.79
2024-04-19T02:50:09.803Z,975.77
2024-04-19T02:51:09.787Z,975.77
2024-04-19T02:52:09.778Z,975.76
2024-04-19T02:53:09.756Z,975.76
2024-04-19T02:54:09.753Z,975.77
2024-04-19T02:55:09.731Z,975.76
2024-04-19T02:56:09.706Z,975.78
2024-04-19T02:57:09.702Z,975.75
2024-04-19T02:58:09.687Z,975.75
2024-04-19T02:59:09.652Z,975.75
2024-04-19T03:00:09.677Z,975.77
2024-04-19T03:01:09.834Z,975.70
2024-04-19T03:02:09.605Z,975.73
2024-04-19T03:03:09.631Z,975.75
2024-04-19T03:04:09.818Z,975.74
2024-04-19T03:05:09.576Z,975.75
2024-04-19T03:06:09.578Z,975.71
2024-04-19T03:07:09.525Z,975.72
2024-04-19T03:08:09.506Z,975.71
2024-04-19T03:09:09.487Z,975.73
2024-04-19T03:10:09.476Z,975.71
2024-04-19T03:11:09.491Z,975.71
2024-04-19T03:12:09.455Z,975.66
2024-04-19T03:13:09.454Z,975.67
2024-04-19T03:14:09.408Z,975.63
2024-04-19T03:15:09.392Z,975.60
2024-04-19T03:16:09.392Z,975.60
2024-04-19T03:17:09.381Z,975.61
2024-04-19T03:18:09.407Z,975.57
2024-04-19T03:19:09.335Z,975.55
2024-04-19T03:20:09.307Z,975.60
2024-04-19T03:21:09.288Z,975.61
2024-04-19T03:22:09.294Z,975.57
2024-04-19T03:23:09.254Z,975.56
2024-04-19T03:24:09.239Z,975.58
2024-04-19T03:25:09.226Z,975.63
2024-04-19T03:26:09.239Z,975.60
2024-04-19T03:27:09.196Z,975.60
2024-04-19T03:28:09.173Z,975.57
2024-04-19T03:29:09.154Z,975.57
2024-04-19T03:30:09.146Z,975.57
2024-04-19T03:31:09.121Z,975.56
2024-04-19T03:32:09.112Z,975.60
2024-04-19T03:33:09.130Z,975.53
2024-04-19T03:34:09.322Z,975.52
2024-04-19T03:35:09.051Z,975.52
2024-04-19T03:36:09.054Z,975.55
2024-04-19T03:37:09.027Z,975.58
2024-04-19T03:38:09.010Z,975.56
2024-04-19T03:39:08.986Z,975.57
2024-04-19T03:40:08.996Z,975.61
2024-04-19T03:41:08.957Z,975.54
2024-04-19T03:42:08.937Z,975.51
2024-04-19T03:43:08.921Z,975.52
2024-04-19T03:44:08.919Z,975.48
2024-04-19T03:45:08.887Z,975.54
2024-04-19T03:46:08.871Z,975.50
2024-04-19T03:47:08.915Z,975.44
2024-04-19T03:48:08.964Z,975.43
2024-04-19T03:49:08.851Z,975.43
2024-04-19T03:50:08.833Z,975.40
2024-04-19T03:51:08.795Z,975.40
2024-04-19T03:52:08.765Z,975.37
2024-04-19T03:53:08.750Z,975.39
2024-04-19T03:54:08.737Z,975.36
2024-04-19T03:55:08.724Z,975.40
2024-04-19T03:56:08.707Z,975.39
2024-04-19T03:57:08.689Z,975.41
2024-04-19T03:58:08.682Z,975.40
2024-04-19T03:59:08.660Z,975.41
2024-04-19T04:00:08.648Z,975.40
2024-04-19T04:01:08.691Z,975.42
2024-04-19T04:02:08.609Z,975.39
2024-04-19T04:03:08.630Z,975.38
2024-04-19T04:04:08.629Z,975.36
2024-04-19T04:05:08.563Z,975.32
2024-04-19T04:06:08.542Z,975.39
2024-04-19T04:07:08.526Z,975.37
2024-04-19T04:08:08.522Z,975.38
2024-04-19T04:09:08.492Z,975.37
2024-04-19T04:10:08.471Z,975.37
2024-04-19T04:11:08.477Z,975.36
2024-04-19T04:12:08.440Z,975.37
2024-04-19T04:13:08.425Z,975.34
2024-04-19T04:14:08.409Z,975.37
2024-04-19T04:15:08.408Z,975.33
2024-04-19T04:16:08.399Z,975.32
2024-04-19T04:17:08.372Z,975.31
2024-04-19T04:18:08.552Z,975.32
2024-04-19T04:19:08.358Z,975.33
2024-04-19T04:20:08.339Z,975.31
2024-04-19T04:21:08.296Z,975.30
2024-04-19T04:22:08.277Z,975.28
2024-04-19T04:23:08.285Z,975.23
2024-04-19T04:24:08.251Z,975.23
2024-04-19T04:25:08.237Z,975.20
2024-04-19T04:26:08.214Z,975.16
2024-04-19T04:27:08.226Z,975.22
2024-04-19T04:28:08.395Z,975.26
2024-04-19T04:29:08.166Z,975.27
2024-04-19T04:30:08.153Z,975.29
2024-04-19T04:31:08.133Z,975.28
2024-04-19T04:32:08.244Z,975.30
2024-04-19T04:33:08.101Z,975.35
2024-04-19T04:34:08.107Z,975.34
2024-04-19T04:35:08.073Z,975.36
2024-04-19T04:36:08.072Z,975.37
2024-04-19T04:37:08.040Z,975.36
2024-04-19T04:38:08.029Z,975.36
2024-04-19T04:39:08.004Z,975.36
2024-04-19T04:40:08.004Z,975.37
2024-04-19T04:41:07.970Z,975.41
2024-04-19T04:42:07.954Z,975.41
2024-04-19T04:43:07.938Z,975.36
2024-04-19T04:44:08.179Z,975.35
2024-04-19T04:45:07.916Z,975.43
2024-04-19T04:46:07.901Z,975.40
2024-04-19T04:47:07.948Z,975.39
2024-04-19T04:48:07.869Z,975.38
2024-04-19T04:49:07.915Z,975.41
2024-04-19T04:50:07.822Z,975.45
2024-04-19T04:51:09.796Z,975.45
2024-04-19T04:52:07.801Z,975.45
2024-04-19T04:53:07.775Z,975.41
2024-04-19T04:54:07.767Z,975.46
2024-04-19T04:55:07.747Z,975.47
2024-04-19T04:56:07.724Z,975.48
2024-04-19T04:57:07.709Z,975.47
2024-04-19T04:58:07.753Z,975.43
2024-04-19T04:59:07.676Z,975.47
2024-04-19T05:00:07.660Z,975.50
2024-04-19T05:01:07.779Z,975.49
2024-04-19T05:02:07.630Z,975.48
2024-04-19T05:03:07.653Z,975.51
2024-04-19T05:04:07.638Z,975.51
2024-04-19T05:05:07.594Z,975.47
2024-04-19T05:06:07.557Z,975.48
2024-04-19T05:07:07.545Z,975.52
2024-04-19T05:08:07.531Z,975.52
2024-04-19T05:09:07.510Z,975.50
2024-04-19T05:10:07.497Z,975.48
2024-04-19T05:11:07.923Z,975.50
2024-04-19T05:12:07.464Z,975.52
2024-04-19T05:13:07.446Z,975.52
2024-04-19T05:14:07.431Z,975.54
2024-04-19T05:15:07.411Z,975.52
2024-04-19T05:16:07.392Z,975.48
2024-04-19T05:17:07.417Z,975.51
2024-04-19T05:18:07.428Z,975.45
2024-04-19T05:19:07.355Z,975.46
2024-04-19T05:20:07.332Z,975.47
2024-04-19T05:21:07.314Z,975.47
2024-04-19T05:22:07.294Z,975.48
2024-04-19T05:23:07.284Z,975.50
2024-04-19T05:24:07.269Z,975.51
2024-04-19T05:25:07.248Z,975.54
2024-04-19T05:26:07.232Z,975.52
2024-04-19T05:27:07.215Z,975.52
2024-04-19T05:28:07.191Z,975.48
2024-04-19T05:29:07.183Z,975.50
2024-04-19T05:30:07.177Z,975.50
2024-04-19T05:31:07.148Z,975.52
2024-04-19T05:32:07.223Z,975.48
2024-04-19T05:33:07.162Z,975.50
2024-04-19T05:34:07.097Z,975.50
2024-04-19T05:35:07.085Z,975.51
2024-04-19T05:36:07.063Z,975.47
2024-04-19T05:37:07.064Z,975.46
2024-04-19T05:38:07.026Z,975.49
2024-04-19T05:40:07.039Z,975.51
2024-04-19T05:41:07.178Z,975.50
2024-04-19T05:42:07.170Z,975.52
2024-04-19T05:43:06.955Z,975.52
2024-04-19T05:44:06.930Z,975.51
2024-04-19T05:45:06.929Z,975.50
2024-04-19T05:46:06.900Z,975.48
2024-04-19T05:47:06.942Z,975.51
2024-04-19T05:48:07.104Z,975.47
2024-04-19T05:49:06.986Z,975.49
2024-04-19T05:50:06.830Z,975.47
2024-04-19T05:51:06.829Z,975.48
2024-04-19T05:52:06.804Z,975.48
2024-04-19T05:53:06.777Z,975.44
2024-04-19T05:54:06.766Z,975.46
2024-04-19T05:55:06.767Z,975.53
2024-04-19T05:56:06.764Z,975.47
2024-04-19T05:57:06.963Z,975.48
2024-04-19T05:58:06.713Z,975.44
2024-04-19T06:00:06.685Z,975.41
2024-04-19T06:01:06.913Z,975.47
2024-04-19T06:02:06.654Z,975.49
2024-04-19T06:03:06.658Z,975.53
2024-04-19T06:04:06.609Z,975.53
2024-04-19T06:05:06.587Z,975.52
2024-04-19T06:06:06.581Z,975.51
2024-04-19T06:07:06.643Z,975.56
2024-04-19T06:08:06.535Z,975.57
2024-04-19T06:09:06.526Z,975.52
2024-04-19T06:10:06.534Z,975.52
2024-04-19T06:11:06.601Z,975.53
2024-04-19T06:12:06.540Z,975.60
2024-04-19T06:13:06.457Z,975.59
2024-04-19T06:14:06.435Z,975.59
2024-04-19T06:15:06.432Z,975.60
2024-04-19T06:16:06.428Z,975.57
2024-04-19T06:17:06.391Z,975.58
2024-04-19T06:18:06.496Z,975.58
2024-04-19T06:19:06.500Z,975.58
2024-04-19T06:20:06.349Z,975.58
2024-04-19T06:21:06.328Z,975.50
2024-04-19T06:22:06.313Z,975.48
2024-04-19T06:23:06.293Z,975.48
2024-04-19T06:24:06.283Z,975.47
2024-04-19T06:25:06.263Z,975.44
2024-04-19T06:26:06.331Z,975.48
2024-04-19T06:27:06.239Z,975.44
2024-04-19T06:28:06.228Z,975.46
2024-04-19T06:29:06.199Z,975.46
2024-04-19T06:30:06.189Z,975.48
2024-04-19T06:31:06.166Z,975.47
2024-04-19T06:32:06.205Z,975.48
2024-04-19T06:33:06.169Z,975.47
2024-04-19T06:34:06.116Z,975.47
2024-04-19T06:35:06.120Z,975.50
2024-04-19T06:36:06.104Z,975.48
2024-04-19T06:37:06.089Z,975.49
2024-04-19T06:38:06.052Z,975.51
2024-04-19T06:39:06.043Z,975.47
2024-04-19T06:40:07.999Z,975.45
2024-04-19T06:41:06.017Z,975.46
2024-04-19T06:42:06.000Z,975.42
2024-04-19T06:43:05.989Z,975.44
2024-04-19T06:44:05.967Z,975.43
2024-04-19T06:45:39.212Z,975.43
2024-04-19T06:46:05.951Z,975.38
2024-04-19T06:47:05.933Z,975.40
2024-04-19T06:48:05.973Z,975.39
2024-04-19T06:49:05.926Z,975.41
2024-04-19T06:50:05.864Z,975.43
2024-04-19T06:51:05.846Z,975.44
2024-04-19T06:52:05.866Z,975.41
2024-04-19T06:53:05.818Z,975.42
2024-04-19T06:54:05.806Z,975.38
2024-04-19T06:55:05.782Z,975.39
2024-04-19T06:56:05.770Z,975.43
2024-04-19T06:57:05.757Z,975.44
2024-04-19T06:58:05.772Z,975.44
2024-04-19T06:59:05.730Z,975.37
2024-04-19T07:00:16.143Z,975.39
2024-04-19T07:01:15.980Z,975.36
2024-04-19T07:02:05.713Z,975.34
2024-04-19T07:03:08.821Z,975.34
2024-04-19T07:04:05.760Z,975.24
2024-04-19T07:05:05.656Z,975.29
2024-04-19T07:06:05.627Z,975.31
2024-04-19T07:07:05.622Z,975.28
2024-04-19T07:08:05.595Z,975.26
2024-04-19T07:09:05.595Z,975.31
2024-04-19T07:10:05.686Z,975.32
2024-04-19T07:11:05.552Z,975.32
2024-04-19T07:12:05.572Z,975.28
2024-04-19T07:13:05.873Z,975.26
2024-04-19T07:14:05.487Z,975.29
2024-04-19T07:15:05.474Z,975.34
2024-04-19T07:16:05.482Z,975.28
2024-04-19T07:17:05.544Z,975.27
2024-04-19T07:18:05.536Z,975.29
2024-04-19T07:19:05.416Z,975.28
2024-04-19T07:20:05.396Z,975.27
2024-04-19T07:21:05.431Z,975.22
2024-04-19T07:22:05.388Z,975.21
2024-04-19T07:23:05.360Z,975.24
2024-04-19T07:24:05.386Z,975.19
2024-04-19T07:25:05.319Z,975.23
2024-04-19T07:26:05.316Z,975.18
2024-04-19T07:27:05.291Z,975.17
2024-04-19T07:28:05.340Z,975.15
2024-04-19T07:29:05.262Z,975.10
2024-04-19T07:30:05.249Z,975.13
2024-04-19T07:31:05.222Z,975.12
2024-04-19T07:32:05.253Z,975.19
2024-04-19T07:33:05.294Z,975.16
2024-04-19T07:34:05.234Z,975.20
2024-04-19T07:35:05.216Z,975.20
2024-04-19T07:36:38.384Z,975.24
2024-04-19T07:37:05.173Z,975.20
2024-04-19T07:38:05.139Z,975.24
2024-04-19T07:39:05.137Z,975.22
2024-04-19T07:40:05.099Z,975.18
2024-04-19T07:41:05.119Z,975.15
2024-04-19T07:42:05.059Z,975.18
2024-04-19T07:43:05.112Z,975.15
2024-04-19T07:44:05.027Z,975.16
2024-04-19T07:45:05.031Z,975.13
2024-04-19T07:46:05.011Z,975.09
2024-04-19T07:47:04.991Z,975.10
2024-04-19T07:48:05.090Z,975.04
2024-04-19T07:49:05.129Z,975.01
2024-04-19T07:50:04.946Z,974.95
2024-04-19T07:51:04.928Z,974.92
2024-04-19T07:52:04.927Z,974.93
2024-04-19T07:53:04.897Z,974.83
2024-04-19T07:54:04.882Z,974.81
2024-04-19T07:55:05.073Z,974.81
2024-04-19T07:56:04.847Z,974.75
2024-04-19T07:57:04.841Z,974.80
2024-04-19T07:58:04.831Z,974.77
2024-04-19T07:59:04.811Z,974.78
2024-04-19T08:00:04.792Z,974.77
2024-04-19T08:01:04.821Z,974.82
2024-04-19T08:02:04.799Z,974.83
2024-04-19T08:03:04.746Z,974.88
2024-04-19T08:04:05.166Z,974.89
2024-04-19T08:05:04.713Z,974.90
2024-04-19T08:06:04.703Z,974.93
2024-04-19T08:07:04.686Z,974.95
2024-04-19T08:08:04.683Z,974.88
2024-04-19T08:09:04.661Z,974.89
2024-04-19T08:10:04.661Z,974.88
2024-04-19T08:11:04.632Z,974.87
2024-04-19T08:12:04.642Z,974.88
2024-04-19T08:13:04.668Z,974.86
2024-04-19T08:14:04.588Z,974.79
2024-04-19T08:15:04.581Z,974.79
2024-04-19T08:16:04.572Z,974.80
2024-04-19T08:17:04.840Z,974.80
2024-04-19T08:18:04.787Z,974.79
2024-04-19T08:19:04.525Z,974.88
2024-04-19T08:20:04.508Z,974.88
2024-04-19T08:21:04.863Z,974.86
2024-04-19T08:22:04.773Z,974.81
2024-04-19T08:23:04.704Z,974.78
2024-04-19T08:24:04.780Z,974.79
2024-04-19T08:25:04.826Z,974.75
2024-04-19T08:26:04.422Z,974.71
2024-04-19T08:27:04.415Z,974.73
2024-04-19T08:28:04.479Z,974.81
2024-04-19T08:29:11.865Z,974.74
2024-04-19T08:30:04.356Z,974.78
2024-04-19T08:31:04.333Z,974.73
2024-04-19T08:32:04.342Z,974.79
2024-04-19T08:33:04.326Z,974.79
2024-04-19T08:34:04.410Z,974.77
2024-04-19T08:35:04.276Z,974.63
2024-04-19T08:36:04.266Z,974.81
2024-04-19T08:37:04.251Z,974.83
2024-04-19T08:38:04.241Z,974.78
2024-04-19T08:39:04.216Z,974.78
2024-04-19T08:40:04.367Z,974.73
2024-04-19T08:41:04.216Z,974.78
2024-04-19T08:42:04.201Z,974.76
2024-04-19T08:43:04.206Z,974.78
2024-04-19T08:44:04.164Z,974.70
2024-04-19T08:45:04.145Z,974.72
2024-04-19T08:46:04.761Z,974.76
2024-04-19T08:47:04.111Z,974.76
2024-04-19T08:48:04.136Z,974.69
2024-04-19T08:49:04.135Z,974.68
2024-04-19T08:50:04.074Z,974.67
2024-04-19T08:51:04.059Z,974.64
2024-04-19T08:52:20.710Z,974.71
2024-04-19T08:53:14.756Z,974.70
2024-04-19T08:54:04.013Z,974.65
2024-04-19T08:55:03.998Z,974.63
2024-04-19T08:56:03.987Z,974.66
2024-04-19T08:57:03.968Z,974.68
2024-04-19T08:58:03.973Z,974.60
2024-04-19T08:59:03.938Z,974.61
2024-04-19T09:00:11.183Z,974.68
2024-04-19T09:01:04.162Z,974.57
2024-04-19T09:02:03.900Z,974.56
2024-04-19T09:03:04.103Z,974.59
2024-04-19T09:04:03.932Z,974.60
2024-04-19T09:05:03.863Z,974.55
2024-04-19T09:06:03.853Z,974.61
2024-04-19T09:07:03.832Z,974.62
2024-04-19T09:08:03.834Z,974.57
2024-04-19T09:09:03.825Z,974.57
2024-04-19T09:10:06.045Z,974.59
2024-04-19T09:11:03.774Z,974.58
2024-04-19T09:12:03.767Z,974.54
2024-04-19T09:13:03.762Z,974.60
2024-04-19T09:14:03.879Z,974.57
2024-04-19T09:15:03.731Z,974.62
2024-04-19T09:16:03.744Z,974.60
2024-04-19T09:17:03.735Z,974.59
2024-04-19T09:18:03.694Z,974.56
2024-04-19T09:19:03.677Z,974.54
2024-04-19T09:20:03.673Z,974.47
2024-04-19T09:21:03.644Z,974.56
2024-04-19T09:22:03.635Z,974.60
2024-04-19T09:23:03.620Z,974.57
2024-04-19T09:24:03.609Z,974.52
2024-04-19T09:25:03.596Z,974.53
2024-04-19T09:26:03.594Z,974.52
2024-04-19T09:27:13.955Z,974.46
2024-04-19T09:28:03.572Z,974.50
2024-04-19T09:29:03.540Z,974.51
2024-04-19T09:30:03.596Z,974.49
2024-04-19T09:31:03.510Z,974.44
2024-04-19T09:32:03.510Z,974.49
2024-04-19T09:33:03.525Z,974.47
2024-04-19T09:34:03.510Z,974.49
2024-04-19T09:35:03.455Z,974.49
2024-04-19T09:36:03.447Z,974.49
2024-04-19T09:37:03.446Z,974.46
2024-04-19T09:38:03.434Z,974.42
2024-04-19T09:39:03.405Z,974.44
2024-04-19T09:40:03.403Z,974.37
2024-04-19T09:41:03.386Z,974.41
2024-04-19T09:42:03.374Z,974.45
2024-04-19T09:43:04.798Z,974.33
2024-04-19T09:44:03.343Z,974.36
2024-04-19T09:45:03.328Z,974.34
2024-04-19T09:46:03.328Z,974.33
2024-04-19T09:47:03.417Z,974.29
2024-04-19T09:48:03.289Z,974.34
2024-04-19T09:49:03.324Z,974.18
2024-04-19T09:50:03.278Z,974.18
2024-04-19T09:51:03.252Z,974.20
2024-04-19T09:52:03.242Z,974.20
2024-04-19T09:53:03.223Z,974.16
2024-04-19T09:54:03.245Z,974.09
2024-04-19T09:55:03.195Z,974.10
2024-04-19T09:56:03.184Z,974.15
2024-04-19T09:57:03.175Z,974.02
2024-04-19T09:58:03.174Z,974.12
2024-04-19T09:59:03.142Z,974.11
2024-04-19T10:00:03.128Z,974.04
2024-04-19T10:01:03.199Z,974.05
2024-04-19T10:02:03.218Z,973.96
2024-04-19T10:03:03.198Z,973.89
2024-04-19T10:04:03.196Z,974.01
2024-04-19T10:05:03.192Z,973.99
2024-04-19T10:06:03.050Z,973.93
2024-04-19T10:07:03.161Z,973.94
2024-04-19T10:08:03.042Z,973.88
2024-04-19T10:09:03.007Z,973.92
2024-04-19T10:10:02.995Z,973.79
2024-04-19T10:11:03.076Z,973.82
2024-04-19T10:12:02.970Z,973.86
2024-04-19T10:13:02.991Z,973.75
2024-04-19T10:14:02.943Z,973.87
2024-04-19T10:15:02.926Z,973.78
2024-04-19T10:16:02.948Z,973.86
2024-04-19T10:17:02.909Z,973.91
2024-04-19T10:18:04.035Z,973.82
2024-04-19T10:19:02.950Z,973.81
2024-04-19T10:20:02.869Z,973.76
2024-04-19T10:21:02.847Z,973.80
2024-04-19T10:22:02.849Z,973.64
2024-04-19T10:23:02.822Z,973.74
2024-04-19T10:24:02.809Z,973.76
2024-04-19T10:25:02.905Z,973.73
2024-04-19T10:26:02.782Z,973.69
2024-04-19T10:27:02.767Z,973.76
2024-04-19T10:28:02.755Z,973.67
2024-04-19T10:29:02.769Z,973.68
2024-04-19T10:30:02.743Z,973.62
2024-04-19T10:31:07.035Z,973.57
2024-04-19T10:32:02.741Z,973.59
2024-04-19T10:33:02.733Z,973.43
2024-04-19T10:34:02.687Z,973.54
2024-04-19T10:35:02.738Z,973.57
2024-04-19T10:36:03.209Z,973.44
2024-04-19T10:37:02.635Z,973.39
2024-04-19T10:38:02.633Z,973.51
2024-04-19T10:39:02.607Z,973.51
2024-04-19T10:40:02.591Z,973.47
2024-04-19T10:41:02.582Z,973.51
2024-04-19T10:42:02.604Z,973.43
2024-04-19T10:43:02.579Z,973.45
2024-04-19T10:44:02.552Z,973.38
2024-04-19T10:45:02.547Z,973.38
2024-04-19T10:46:02.539Z,973.39
2024-04-19T10:47:02.525Z,973.34
2024-04-19T10:48:02.540Z,973.31
2024-04-19T10:49:02.632Z,973.30
2024-04-19T10:50:02.465Z,973.29
2024-04-19T10:51:02.454Z,973.38
2024-04-19T10:52:02.476Z,973.29
2024-04-19T10:53:02.429Z,973.29
2024-04-19T10:54:02.401Z,973.28
2024-04-19T10:55:02.532Z,973.28
2024-04-19T10:56:02.372Z,973.22
2024-04-19T10:57:02.369Z,973.16
2024-04-19T10:58:02.346Z,973.20
2024-04-19T10:59:02.340Z,973.16
2024-04-19T11:00:02.335Z,973.16
2024-04-19T11:01:02.372Z,973.17
2024-04-19T11:02:02.323Z,973.16
2024-04-19T11:03:10.143Z,973.10
2024-04-19T11:04:02.380Z,973.11
2024-04-19T11:05:02.262Z,973.13
2024-04-19T11:06:02.240Z,973.16
2024-04-19T11:07:02.294Z,973.06
2024-04-19T11:08:02.213Z,973.04
2024-04-19T11:09:02.196Z,973.06
2024-04-19T11:10:02.232Z,973.00
2024-04-19T11:11:02.196Z,973.06
2024-04-19T11:12:02.183Z,973.06
2024-04-19T11:13:02.174Z,973.01
2024-04-19T11:14:02.120Z,973.06
2024-04-19T11:15:02.177Z,973.07
2024-04-19T11:16:02.145Z,973.03
2024-04-19T11:17:02.081Z,973.02
2024-04-19T11:18:02.180Z,972.99
2024-04-19T11:19:02.133Z,972.99
2024-04-19T11:20:02.078Z,973.00
2024-04-19T11:21:08.315Z,972.96
2024-04-19T11:22:02.105Z,972.92
2024-04-19T11:23:02.025Z,972.93
2024-04-19T11:24:01.983Z,972.96
2024-04-19T11:25:02.063Z,972.91
2024-04-19T11:26:01.960Z,972.85
2024-04-19T11:27:01.947Z,972.89
2024-04-19T11:28:01.992Z,972.79
2024-04-19T11:29:01.917Z,972.85
2024-04-19T11:30:01.933Z,972.84
2024-04-19T11:31:01.920Z,972.81
2024-04-19T11:32:01.883Z,972.81
2024-04-19T11:33:01.924Z,972.76
2024-04-19T11:34:01.906Z,972.73
2024-04-19T11:35:01.856Z,972.71
2024-04-19T11:36:01.828Z,972.68
2024-04-19T11:37:01.850Z,972.63
2024-04-19T11:38:01.817Z,972.68
2024-04-19T11:39:01.831Z,972.63
2024-04-19T11:40:01.818Z,972.59
2024-04-19T11:41:01.763Z,972.54
2024-04-19T11:42:01.746Z,972.62
2024-04-19T11:43:01.806Z,972.63
2024-04-19T11:44:01.724Z,972.56
2024-04-19T11:45:01.700Z,972.63
2024-04-19T11:46:01.762Z,972.71
2024-04-19T11:47:01.678Z,972.58
2024-04-19T11:48:01.894Z,972.59
2024-04-19T11:49:01.691Z,972.74
2024-04-19T11:50:01.659Z,972.69
2024-04-19T11:51:01.642Z,972.62
2024-04-19T11:52:01.672Z,972.83
2024-04-19T11:53:01.603Z,972.73
2024-04-19T11:54:01.594Z,972.67
2024-04-19T11:55:01.621Z,972.62
2024-04-19T11:56:01.558Z,972.77
2024-04-19T11:57:01.563Z,972.70
2024-04-19T11:58:01.688Z,972.74
2024-04-19T11:59:01.527Z,972.79
2024-04-19T12:00:01.504Z,972.68
2024-04-19T12:01:01.648Z,972.60
2024-04-19T12:02:01.482Z,972.73
2024-04-19T12:03:01.537Z,972.62
2024-04-19T12:04:01.649Z,972.64
2024-04-19T12:05:01.509Z,972.64
2024-04-19T12:06:01.446Z,972.62
2024-04-19T12:07:01.523Z,972.57
2024-04-19T12:08:01.396Z,972.54
2024-04-19T12:09:01.384Z,972.46
2024-04-19T12:10:01.450Z,972.46
2024-04-19T12:11:01.394Z,972.45
2024-04-19T12:14:56.767Z,972.43
2024-04-19T12:15:44.662Z,972.31
2024-04-19T12:16:31.886Z,972.35
2024-04-19T12:17:09.513Z,972.30
2024-04-19T12:18:01.741Z,972.27
2024-04-19T12:19:01.518Z,972.28
2024-04-19T12:20:08.062Z,972.22
2024-04-19T12:21:01.615Z,972.29
2024-04-19T12:22:02.587Z,972.21
2024-04-19T12:23:05.917Z,972.23
2024-04-19T12:24:01.678Z,972.18
2024-04-19T12:25:02.141Z,972.21
2024-04-19T12:26:02.606Z,972.27
2024-04-19T12:27:01.293Z,972.19
2024-04-19T12:28:01.388Z,972.25
2024-04-19T12:29:01.260Z,972.25
2024-04-19T12:30:01.147Z,972.14
2024-04-19T12:31:01.128Z,972.13
2024-04-19T12:32:01.104Z,972.14
2024-04-19T12:33:01.155Z,972.10